KDIK/DIK METAR and TAF weather

Enter ICAO airport designator
Station Type Date Time Source
KDIK METAR 2019/06/20 06:56 UTC NOAA

KDIK 200656Z AUTO 15006KT 5SM -RA BR FEW006 BKN021 OVC026 13/13 A2967 RMK AO2 RAB0558 SLP040 P0001 T01330128 401610128


Station Type Date Time Source
KDIK Decoded METAR 2019/06/20 06:56 UTC NOAA

THEODORE ROOSEVELT REGIONAL, ND, United States (KDIK) 46-48N 102-48W 788M
Jun 20, 2019 - 02:56 AM EDT / 2019.06.20 0656 UTC
Wind: from the SSE (150 degrees) at 7 MPH (6 KT):0
Visibility: 5 mile(s):0
Sky conditions: overcast
Weather: light rain; mist
Precipitation last hour: 0.01 inches
Temperature: 55.9 F (13.3 C)
Dew Point: 55.0 F (12.8 C)
Relative Humidity: 96%
Pressure (altimeter): 29.67 in. Hg (1004 hPa)
ob: KDIK 200656Z AUTO 15006KT 5SM -RA BR FEW006 BKN021 OVC026 13/13 A2967 RMK AO2 RAB0558 SLP040 P0001 T01330128 401610128
cycle: 7

Station Type Date Time Source
KDIK TAF 2019/06/20 06:24 UTC NOAA

TAF KDIK 200521Z 2006/2106 13007KT P6SM VCSH OVC008
TEMPO 2006/2009 -SHRA
FM201000 18005KT P6SM VCSH SCT010 OVC017
FM201300 28008KT P6SM SCT025
FM201800 31012G20KT P6SM FEW050 FEW200
FM210100 27005KT P6SM SCT070 BKN150

Example: see airport list